sensor_id;sensor_type;location;lat;lon;timestamp;pressure;altitude;pressure_sealevel;temperature;humidity
34237;BME280;20501;45.956;13.632;2023-11-19T00:00:34;101171.38;;;6.73;70.64
34237;BME280;20501;45.956;13.632;2023-11-19T00:02:59;101157.97;;;7.13;68.14
34237;BME280;20501;45.956;13.632;2023-11-19T00:05:25;101170.47;;;7.27;67.20
34237;BME280;20501;45.956;13.632;2023-11-19T00:07:50;101170.66;;;7.65;65.96
34237;BME280;20501;45.956;13.632;2023-11-19T00:10:16;101156.13;;;7.54;66.22
34237;BME280;20501;45.956;13.632;2023-11-19T00:12:47;101160.72;;;7.78;62.37
34237;BME280;20501;45.956;13.632;2023-11-19T00:15:13;101163.22;;;8.07;62.36
34237;BME280;20501;45.956;13.632;2023-11-19T00:17:40;101158.47;;;7.72;64.25
34237;BME280;20501;45.956;13.632;2023-11-19T00:20:06;101165.25;;;7.78;63.35
34237;BME280;20501;45.956;13.632;2023-11-19T00:22:33;101162.91;;;7.73;63.26
34237;BME280;20501;45.956;13.632;2023-11-19T00:24:58;101173.84;;;7.57;64.76
34237;BME280;20501;45.956;13.632;2023-11-19T00:27:24;101171.09;;;7.71;64.64
34237;BME280;20501;45.956;13.632;2023-11-19T00:29:50;101166.56;;;7.72;63.89
34237;BME280;20501;45.956;13.632;2023-11-19T00:32:15;101175.16;;;7.90;62.89
34237;BME280;20501;45.956;13.632;2023-11-19T00:34:44;101175.59;;;7.97;62.71
34237;BME280;20501;45.956;13.632;2023-11-19T00:37:09;101174.28;;;7.77;64.16
34237;BME280;20501;45.956;13.632;2023-11-19T00:39:35;101175.06;;;7.66;63.95
34237;BME280;20501;45.956;13.632;2023-11-19T00:42:00;101172.16;;;7.82;61.15
34237;BME280;20501;45.956;13.632;2023-11-19T00:44:25;101171.94;;;7.98;61.65
34237;BME280;20501;45.956;13.632;2023-11-19T00:46:51;101173.00;;;7.95;62.14
34237;BME280;20501;45.956;13.632;2023-11-19T00:49:16;101178.16;;;7.98;61.04
34237;BME280;20501;45.956;13.632;2023-11-19T00:51:42;101173.88;;;7.83;61.30
34237;BME280;20501;45.956;13.632;2023-11-19T00:54:07;101168.06;;;7.76;63.05
34237;BME280;20501;45.956;13.632;2023-11-19T00:56:32;101170.41;;;7.94;63.65
34237;BME280;20501;45.956;13.632;2023-11-19T00:58:58;101167.63;;;7.95;63.11
34237;BME280;20501;45.956;13.632;2023-11-19T01:01:25;101167.63;;;7.95;61.60
34237;BME280;20501;45.956;13.632;2023-11-19T01:03:50;101157.28;;;8.02;61.37
34237;BME280;20501;45.956;13.632;2023-11-19T01:06:26;101145.16;;;7.70;62.18
34237;BME280;20501;45.956;13.632;2023-11-19T01:08:52;101139.97;;;7.93;61.39
34237;BME280;20501;45.956;13.632;2023-11-19T01:11:22;101140.81;;;8.06;61.77
34237;BME280;20501;45.956;13.632;2023-11-19T01:13:47;101120.63;;;7.75;61.81
34237;BME280;20501;45.956;13.632;2023-11-19T01:16:13;101110.28;;;7.82;60.49
34237;BME280;20501;45.956;13.632;2023-11-19T01:18:38;101106.78;;;8.05;59.14
34237;BME280;20501;45.956;13.632;2023-11-19T01:21:04;101111.84;;;8.10;57.97
34237;BME280;20501;45.956;13.632;2023-11-19T01:23:30;101105.53;;;7.98;59.39
34237;BME280;20501;45.956;13.632;2023-11-19T01:25:56;101105.53;;;7.85;61.76
34237;BME280;20501;45.956;13.632;2023-11-19T01:28:21;101118.13;;;7.85;62.16
34237;BME280;20501;45.956;13.632;2023-11-19T01:30:47;101121.25;;;7.40;64.35
34237;BME280;20501;45.956;13.632;2023-11-19T01:33:12;101112.06;;;7.04;65.77
34237;BME280;20501;45.956;13.632;2023-11-19T01:35:37;101120.34;;;7.01;66.08
34237;BME280;20501;45.956;13.632;2023-11-19T01:38:03;101122.09;;;7.27;65.56
34237;BME280;20501;45.956;13.632;2023-11-19T01:40:28;101123.09;;;6.86;67.00
34237;BME280;20501;45.956;13.632;2023-11-19T01:42:54;101117.16;;;7.21;66.05
34237;BME280;20501;45.956;13.632;2023-11-19T01:45:30;101108.97;;;7.23;65.33
34237;BME280;20501;45.956;13.632;2023-11-19T01:47:56;101104.38;;;7.38;63.97
34237;BME280;20501;45.956;13.632;2023-11-19T01:50:23;101114.91;;;7.67;62.76
34237;BME280;20501;45.956;13.632;2023-11-19T01:52:53;101119.56;;;7.65;62.56
34237;BME280;20501;45.956;13.632;2023-11-19T01:55:20;101116.63;;;7.68;62.94
34237;BME280;20501;45.956;13.632;2023-11-19T01:57:49;101117.38;;;7.70;62.03
34237;BME280;20501;45.956;13.632;2023-11-19T02:00:16;101120.06;;;7.70;62.01
34237;BME280;20501;45.956;13.632;2023-11-19T02:02:46;101104.78;;;7.57;62.25
34237;BME280;20501;45.956;13.632;2023-11-19T02:05:12;101103.94;;;7.70;62.08
34237;BME280;20501;45.956;13.632;2023-11-19T02:07:38;101108.69;;;7.66;62.08
34237;BME280;20501;45.956;13.632;2023-11-19T02:10:04;101110.41;;;7.67;61.58
34237;BME280;20501;45.956;13.632;2023-11-19T02:12:31;101092.06;;;7.98;60.26
34237;BME280;20501;45.956;13.632;2023-11-19T02:15:02;101077.78;;;7.98;60.18
34237;BME280;20501;45.956;13.632;2023-11-19T02:17:31;101081.66;;;7.81;61.55
34237;BME280;20501;45.956;13.632;2023-11-19T02:19:57;101079.31;;;7.76;60.74
34237;BME280;20501;45.956;13.632;2023-11-19T02:22:23;101079.19;;;7.78;60.77
34237;BME280;20501;45.956;13.632;2023-11-19T02:24:51;101079.84;;;7.68;60.37
34237;BME280;20501;45.956;13.632;2023-11-19T02:29:50;101088.34;;;7.62;61.22
34237;BME280;20501;45.956;13.632;2023-11-19T02:32:15;101085.34;;;7.54;61.52
34237;BME280;20501;45.956;13.632;2023-11-19T02:34:41;101068.88;;;7.71;61.58
34237;BME280;20501;45.956;13.632;2023-11-19T02:37:06;101061.97;;;7.80;60.67
34237;BME280;20501;45.956;13.632;2023-11-19T02:39:32;101056.50;;;7.69;61.59
34237;BME280;20501;45.956;13.632;2023-11-19T02:41:57;101056.06;;;7.62;61.73
34237;BME280;20501;45.956;13.632;2023-11-19T02:44:22;101047.47;;;7.70;61.30
34237;BME280;20501;45.956;13.632;2023-11-19T02:46:48;101039.09;;;7.62;61.68
34237;BME280;20501;45.956;13.632;2023-11-19T02:49:14;101044.00;;;7.68;60.68
34237;BME280;20501;45.956;13.632;2023-11-19T02:51:40;101029.94;;;7.64;60.77
34237;BME280;20501;45.956;13.632;2023-11-19T02:54:06;101037.78;;;7.67;60.45
34237;BME280;20501;45.956;13.632;2023-11-19T02:56:31;101025.19;;;7.68;60.55
34237;BME280;20501;45.956;13.632;2023-11-19T02:59:01;101017.94;;;7.44;61.09
34237;BME280;20501;45.956;13.632;2023-11-19T03:01:37;101024.25;;;7.56;61.10
34237;BME280;20501;45.956;13.632;2023-11-19T03:04:02;101022.53;;;7.55;61.10
34237;BME280;20501;45.956;13.632;2023-11-19T03:06:29;101011.78;;;7.55;61.74
34237;BME280;20501;45.956;13.632;2023-11-19T03:08:55;101014.69;;;7.65;60.46
34237;BME280;20501;45.956;13.632;2023-11-19T03:11:21;101017.25;;;7.66;61.33
34237;BME280;20501;45.956;13.632;2023-11-19T03:13:46;101005.00;;;7.49;61.47
34237;BME280;20501;45.956;13.632;2023-11-19T03:16:13;101003.09;;;7.38;61.72
34237;BME280;20501;45.956;13.632;2023-11-19T03:18:39;101008.16;;;7.43;61.66
34237;BME280;20501;45.956;13.632;2023-11-19T03:21:07;101012.94;;;7.51;61.74
34237;BME280;20501;45.956;13.632;2023-11-19T03:23:33;101010.38;;;7.49;62.11
34237;BME280;20501;45.956;13.632;2023-11-19T03:25:59;101004.81;;;7.52;61.82
34237;BME280;20501;45.956;13.632;2023-11-19T03:28:28;101001.44;;;7.62;61.38
34237;BME280;20501;45.956;13.632;2023-11-19T03:30:53;100986.63;;;7.43;61.90
34237;BME280;20501;45.956;13.632;2023-11-19T03:33:19;100978.28;;;7.72;60.59
34237;BME280;20501;45.956;13.632;2023-11-19T03:35:44;100984.38;;;7.50;61.50
34237;BME280;20501;45.956;13.632;2023-11-19T03:38:11;100995.44;;;7.58;61.50
34237;BME280;20501;45.956;13.632;2023-11-19T03:40:36;101002.19;;;7.51;61.44
34237;BME280;20501;45.956;13.632;2023-11-19T03:43:02;101011.69;;;7.43;62.36
34237;BME280;20501;45.956;13.632;2023-11-19T03:45:29;101008.47;;;7.25;62.72
34237;BME280;20501;45.956;13.632;2023-11-19T03:47:54;101007.50;;;7.39;62.40
34237;BME280;20501;45.956;13.632;2023-11-19T03:50:20;101003.84;;;7.27;62.78
34237;BME280;20501;45.956;13.632;2023-11-19T03:52:47;101013.09;;;7.36;61.99
34237;BME280;20501;45.956;13.632;2023-11-19T03:55:12;101006.53;;;7.27;62.65
34237;BME280;20501;45.956;13.632;2023-11-19T03:57:38;101007.72;;;7.36;62.45
34237;BME280;20501;45.956;13.632;2023-11-19T04:00:04;101009.00;;;7.31;62.75
34237;BME280;20501;45.956;13.632;2023-11-19T04:02:35;101005.56;;;7.41;62.46
34237;BME280;20501;45.956;13.632;2023-11-19T04:05:01;100988.66;;;7.52;62.26
34237;BME280;20501;45.956;13.632;2023-11-19T04:07:26;100984.56;;;7.59;61.98
34237;BME280;20501;45.956;13.632;2023-11-19T04:09:51;100983.06;;;7.55;61.80
34237;BME280;20501;45.956;13.632;2023-11-19T04:12:17;101008.03;;;7.44;61.70
34237;BME280;20501;45.956;13.632;2023-11-19T04:14:42;101007.81;;;7.48;62.13
34237;BME280;20501;45.956;13.632;2023-11-19T04:17:09;100990.94;;;7.46;62.65
34237;BME280;20501;45.956;13.632;2023-11-19T04:19:34;100991.25;;;7.41;62.35
34237;BME280;20501;45.956;13.632;2023-11-19T04:22:00;100989.41;;;7.54;61.71
34237;BME280;20501;45.956;13.632;2023-11-19T04:24:25;100996.28;;;7.71;61.11
34237;BME280;20501;45.956;13.632;2023-11-19T04:26:50;100993.88;;;7.67;61.17
34237;BME280;20501;45.956;13.632;2023-11-19T04:29:17;100991.88;;;7.57;62.01
34237;BME280;20501;45.956;13.632;2023-11-19T04:31:43;100991.22;;;7.54;62.22
34237;BME280;20501;45.956;13.632;2023-11-19T04:34:09;100991.34;;;7.52;62.62
34237;BME280;20501;45.956;13.632;2023-11-19T04:36:36;100993.28;;;7.50;61.57
34237;BME280;20501;45.956;13.632;2023-11-19T04:39:04;100977.38;;;7.47;62.31
34237;BME280;20501;45.956;13.632;2023-11-19T04:41:47;100976.22;;;7.38;62.91
34237;BME280;20501;45.956;13.632;2023-11-19T04:44:17;100988.91;;;7.36;62.86
34237;BME280;20501;45.956;13.632;2023-11-19T04:46:43;100996.44;;;7.44;62.45
34237;BME280;20501;45.956;13.632;2023-11-19T04:49:09;100994.88;;;7.53;62.60
34237;BME280;20501;45.956;13.632;2023-11-19T04:51:41;100975.47;;;7.73;61.71
34237;BME280;20501;45.956;13.632;2023-11-19T04:54:10;100960.97;;;7.76;61.43
34237;BME280;20501;45.956;13.632;2023-11-19T04:56:38;100946.22;;;7.69;62.12
34237;BME280;20501;45.956;13.632;2023-11-19T04:59:05;100946.91;;;7.59;62.45
34237;BME280;20501;45.956;13.632;2023-11-19T05:01:34;100942.75;;;7.55;62.04
34237;BME280;20501;45.956;13.632;2023-11-19T05:04:00;100937.78;;;7.49;61.76
34237;BME280;20501;45.956;13.632;2023-11-19T05:06:31;100942.50;;;7.58;61.69
34237;BME280;20501;45.956;13.632;2023-11-19T05:08:59;100942.41;;;7.47;62.54
34237;BME280;20501;45.956;13.632;2023-11-19T05:11:35;100952.03;;;7.75;61.59
34237;BME280;20501;45.956;13.632;2023-11-19T05:14:02;100948.41;;;7.64;61.55
34237;BME280;20501;45.956;13.632;2023-11-19T05:16:29;100941.75;;;7.56;62.60
34237;BME280;20501;45.956;13.632;2023-11-19T05:18:54;100945.25;;;7.70;62.67
34237;BME280;20501;45.956;13.632;2023-11-19T05:21:20;100940.31;;;7.26;65.15
34237;BME280;20501;45.956;13.632;2023-11-19T05:23:46;100937.16;;;7.46;65.29
34237;BME280;20501;45.956;13.632;2023-11-19T05:26:19;100931.25;;;7.53;65.04
34237;BME280;20501;45.956;13.632;2023-11-19T05:28:45;100942.41;;;7.60;62.85
34237;BME280;20501;45.956;13.632;2023-11-19T05:31:11;100930.28;;;7.54;62.00
34237;BME280;20501;45.956;13.632;2023-11-19T05:33:36;100931.00;;;7.56;62.43
34237;BME280;20501;45.956;13.632;2023-11-19T05:36:02;100932.16;;;7.65;61.72
34237;BME280;20501;45.956;13.632;2023-11-19T05:38:29;100944.63;;;8.03;60.77
34237;BME280;20501;45.956;13.632;2023-11-19T05:40:54;100932.03;;;7.67;62.18
34237;BME280;20501;45.956;13.632;2023-11-19T05:43:20;100921.53;;;7.64;61.81
34237;BME280;20501;45.956;13.632;2023-11-19T05:45:46;100917.03;;;7.51;62.57
34237;BME280;20501;45.956;13.632;2023-11-19T05:48:12;100904.78;;;7.47;62.51
34237;BME280;20501;45.956;13.632;2023-11-19T05:50:38;100911.66;;;7.51;62.64
34237;BME280;20501;45.956;13.632;2023-11-19T05:53:04;100931.91;;;7.31;63.03
34237;BME280;20501;45.956;13.632;2023-11-19T05:55:33;100944.81;;;7.39;63.06
34237;BME280;20501;45.956;13.632;2023-11-19T05:57:59;100933.84;;;7.42;62.96
34237;BME280;20501;45.956;13.632;2023-11-19T06:00:25;100930.81;;;7.47;62.99
34237;BME280;20501;45.956;13.632;2023-11-19T06:02:52;100947.28;;;7.42;63.05
34237;BME280;20501;45.956;13.632;2023-11-19T06:05:17;100942.66;;;7.31;63.27
34237;BME280;20501;45.956;13.632;2023-11-19T06:07:43;100933.13;;;7.27;63.81
34237;BME280;20501;45.956;13.632;2023-11-19T06:10:09;100922.91;;;7.19;63.66
34237;BME280;20501;45.956;13.632;2023-11-19T06:12:35;100931.50;;;7.24;63.56
34237;BME280;20501;45.956;13.632;2023-11-19T06:15:06;100947.09;;;7.19;64.59
34237;BME280;20501;45.956;13.632;2023-11-19T06:17:33;100965.47;;;7.25;63.58
34237;BME280;20501;45.956;13.632;2023-11-19T06:19:59;100964.41;;;7.28;64.13
34237;BME280;20501;45.956;13.632;2023-11-19T06:22:24;100957.31;;;7.27;63.39
34237;BME280;20501;45.956;13.632;2023-11-19T06:24:50;100955.47;;;7.27;63.76
34237;BME280;20501;45.956;13.632;2023-11-19T06:27:15;100937.19;;;7.33;63.38
34237;BME280;20501;45.956;13.632;2023-11-19T06:29:41;100936.00;;;7.37;63.66
34237;BME280;20501;45.956;13.632;2023-11-19T06:32:07;100927.63;;;7.28;63.49
34237;BME280;20501;45.956;13.632;2023-11-19T06:34:33;100921.19;;;7.18;63.53
34237;BME280;20501;45.956;13.632;2023-11-19T06:36:59;100922.69;;;7.35;63.69
34237;BME280;20501;45.956;13.632;2023-11-19T06:39:25;100915.03;;;7.42;62.79
34237;BME280;20501;45.956;13.632;2023-11-19T06:41:50;100936.63;;;7.53;62.74
34237;BME280;20501;45.956;13.632;2023-11-19T06:44:15;100930.16;;;7.56;63.48
34237;BME280;20501;45.956;13.632;2023-11-19T06:46:41;100944.13;;;7.48;63.01
34237;BME280;20501;45.956;13.632;2023-11-19T06:49:07;100947.19;;;7.31;63.70
34237;BME280;20501;45.956;13.632;2023-11-19T06:51:35;100944.91;;;7.50;63.56
34237;BME280;20501;45.956;13.632;2023-11-19T06:54:00;100946.06;;;7.46;63.24
34237;BME280;20501;45.956;13.632;2023-11-19T06:56:26;100930.78;;;7.22;63.88
34237;BME280;20501;45.956;13.632;2023-11-19T06:58:52;100931.59;;;7.36;63.68
34237;BME280;20501;45.956;13.632;2023-11-19T07:01:19;100950.72;;;7.31;63.98
34237;BME280;20501;45.956;13.632;2023-11-19T07:03:45;100949.44;;;7.37;64.06
34237;BME280;20501;45.956;13.632;2023-11-19T07:06:11;100951.50;;;7.33;64.00
34237;BME280;20501;45.956;13.632;2023-11-19T07:08:38;100958.69;;;7.33;64.31
34237;BME280;20501;45.956;13.632;2023-11-19T07:11:04;100949.72;;;7.45;63.91
34237;BME280;20501;45.956;13.632;2023-11-19T07:13:30;100946.41;;;7.54;64.04
34237;BME280;20501;45.956;13.632;2023-11-19T07:15:58;100940.34;;;7.64;63.60
34237;BME280;20501;45.956;13.632;2023-11-19T07:18:23;100941.72;;;7.69;63.59
34237;BME280;20501;45.956;13.632;2023-11-19T07:20:49;100927.25;;;7.83;63.37
34237;BME280;20501;45.956;13.632;2023-11-19T07:23:14;100944.38;;;8.06;62.17
34237;BME280;20501;45.956;13.632;2023-11-19T07:25:42;100940.88;;;8.17;61.71
34237;BME280;20501;45.956;13.632;2023-11-19T07:28:08;100932.38;;;8.35;62.64
34237;BME280;20501;45.956;13.632;2023-11-19T07:30:35;100931.41;;;8.36;62.13
34237;BME280;20501;45.956;13.632;2023-11-19T07:33:00;100937.09;;;8.20;61.81
34237;BME280;20501;45.956;13.632;2023-11-19T07:35:26;100932.75;;;8.06;62.42
34237;BME280;20501;45.956;13.632;2023-11-19T07:37:51;100928.47;;;8.39;61.99
34237;BME280;20501;45.956;13.632;2023-11-19T07:40:16;100927.59;;;8.39;62.14
34237;BME280;20501;45.956;13.632;2023-11-19T07:42:42;100916.06;;;8.49;61.65
34237;BME280;20501;45.956;13.632;2023-11-19T07:45:08;100920.56;;;8.49;61.44
34237;BME280;20501;45.956;13.632;2023-11-19T07:47:33;100934.41;;;8.20;62.56
34237;BME280;20501;45.956;13.632;2023-11-19T07:49:59;100943.78;;;8.14;62.96
34237;BME280;20501;45.956;13.632;2023-11-19T07:52:25;100939.50;;;8.12;62.97
34237;BME280;20501;45.956;13.632;2023-11-19T07:54:50;100935.66;;;8.03;63.26
34237;BME280;20501;45.956;13.632;2023-11-19T07:57:15;100957.06;;;8.04;63.39
34237;BME280;20501;45.956;13.632;2023-11-19T07:59:41;100957.13;;;8.16;62.56
34237;BME280;20501;45.956;13.632;2023-11-19T08:02:06;100974.09;;;8.05;62.65
34237;BME280;20501;45.956;13.632;2023-11-19T08:04:32;100989.69;;;8.00;63.31
34237;BME280;20501;45.956;13.632;2023-11-19T08:06:57;100980.09;;;8.09;62.47
34237;BME280;20501;45.956;13.632;2023-11-19T08:09:22;100970.97;;;8.23;62.26
34237;BME280;20501;45.956;13.632;2023-11-19T08:11:48;100962.91;;;8.23;62.03
34237;BME280;20501;45.956;13.632;2023-11-19T08:14:13;100945.44;;;8.28;61.98
34237;BME280;20501;45.956;13.632;2023-11-19T08:16:39;100954.69;;;8.13;61.72
34237;BME280;20501;45.956;13.632;2023-11-19T08:19:05;100957.56;;;8.34;61.90
34237;BME280;20501;45.956;13.632;2023-11-19T08:21:31;100970.69;;;8.39;61.77
34237;BME280;20501;45.956;13.632;2023-11-19T08:23:56;100967.22;;;8.49;61.50
34237;BME280;20501;45.956;13.632;2023-11-19T08:26:22;100970.69;;;8.63;61.11
34237;BME280;20501;45.956;13.632;2023-11-19T08:28:47;100970.63;;;8.87;61.08
34237;BME280;20501;45.956;13.632;2023-11-19T08:31:12;100969.66;;;8.88;61.32
34237;BME280;20501;45.956;13.632;2023-11-19T08:33:38;100954.22;;;9.13;59.90
34237;BME280;20501;45.956;13.632;2023-11-19T08:36:04;100959.38;;;9.16;61.01
34237;BME280;20501;45.956;13.632;2023-11-19T08:38:30;100968.44;;;9.60;59.72
34237;BME280;20501;45.956;13.632;2023-11-19T08:40:55;100973.53;;;9.98;57.51
34237;BME280;20501;45.956;13.632;2023-11-19T08:43:25;100961.66;;;10.21;57.15
34237;BME280;20501;45.956;13.632;2023-11-19T08:45:51;100970.59;;;10.87;56.80
34237;BME280;20501;45.956;13.632;2023-11-19T08:48:16;100968.75;;;11.19;55.40
34237;BME280;20501;45.956;13.632;2023-11-19T08:50:42;100966.47;;;11.45;54.83
34237;BME280;20501;45.956;13.632;2023-11-19T08:53:07;100961.88;;;11.36;54.72
34237;BME280;20501;45.956;13.632;2023-11-19T08:55:33;100946.19;;;10.77;55.79
34237;BME280;20501;45.956;13.632;2023-11-19T08:57:58;100939.94;;;10.77;56.21
34237;BME280;20501;45.956;13.632;2023-11-19T09:00:23;100965.31;;;11.38;55.64
34237;BME280;20501;45.956;13.632;2023-11-19T09:02:49;100955.66;;;11.96;53.94
34237;BME280;20501;45.956;13.632;2023-11-19T09:05:14;100953.03;;;11.74;53.70
34237;BME280;20501;45.956;13.632;2023-11-19T09:07:40;100962.09;;;11.54;54.38
34237;BME280;20501;45.956;13.632;2023-11-19T09:10:05;100954.22;;;11.41;56.04
34237;BME280;20501;45.956;13.632;2023-11-19T09:12:33;100943.63;;;11.28;56.41
34237;BME280;20501;45.956;13.632;2023-11-19T09:14:59;100934.34;;;11.61;54.19
34237;BME280;20501;45.956;13.632;2023-11-19T09:17:24;100940.59;;;11.52;55.08
34237;BME280;20501;45.956;13.632;2023-11-19T09:19:50;100925.03;;;11.44;55.26
34237;BME280;20501;45.956;13.632;2023-11-19T09:22:15;100939.13;;;11.38;55.78
34237;BME280;20501;45.956;13.632;2023-11-19T09:24:41;100935.00;;;11.13;56.98
34237;BME280;20501;45.956;13.632;2023-11-19T09:27:09;100940.72;;;11.10;57.83
34237;BME280;20501;45.956;13.632;2023-11-19T09:29:34;100952.66;;;10.86;57.90
34237;BME280;20501;45.956;13.632;2023-11-19T09:32:00;100957.41;;;10.94;57.83
34237;BME280;20501;45.956;13.632;2023-11-19T09:34:25;100949.09;;;10.86;58.30
34237;BME280;20501;45.956;13.632;2023-11-19T09:36:51;100944.78;;;10.73;58.58
34237;BME280;20501;45.956;13.632;2023-11-19T09:39:16;100948.53;;;10.61;58.36
34237;BME280;20501;45.956;13.632;2023-11-19T09:41:44;100942.84;;;10.64;58.52
34237;BME280;20501;45.956;13.632;2023-11-19T09:44:10;100940.59;;;10.69;58.89
34237;BME280;20501;45.956;13.632;2023-11-19T09:46:38;100940.41;;;10.61;59.32
34237;BME280;20501;45.956;13.632;2023-11-19T09:49:05;100933.88;;;10.63;58.60
34237;BME280;20501;45.956;13.632;2023-11-19T09:51:35;100927.69;;;10.51;59.23
34237;BME280;20501;45.956;13.632;2023-11-19T09:54:00;100927.47;;;10.43;59.78
34237;BME280;20501;45.956;13.632;2023-11-19T09:56:31;100920.59;;;10.50;59.01
34237;BME280;20501;45.956;13.632;2023-11-19T09:58:59;100906.19;;;10.50;59.63
34237;BME280;20501;45.956;13.632;2023-11-19T10:01:24;100903.25;;;10.53;59.33
34237;BME280;20501;45.956;13.632;2023-11-19T10:03:50;100889.19;;;10.59;58.82
34237;BME280;20501;45.956;13.632;2023-11-19T10:06:18;100874.50;;;10.73;58.96
34237;BME280;20501;45.956;13.632;2023-11-19T10:08:44;100877.53;;;11.11;58.27
34237;BME280;20501;45.956;13.632;2023-11-19T10:11:09;100877.59;;;11.40;58.51
34237;BME280;20501;45.956;13.632;2023-11-19T10:13:38;100897.00;;;11.45;59.07
34237;BME280;20501;45.956;13.632;2023-11-19T10:16:12;100909.78;;;11.34;59.22
34237;BME280;20501;45.956;13.632;2023-11-19T10:18:43;100876.88;;;11.28;58.89
34237;BME280;20501;45.956;13.632;2023-11-19T10:21:12;100870.47;;;11.29;58.83
34237;BME280;20501;45.956;13.632;2023-11-19T10:23:55;100888.56;;;11.39;59.47
34237;BME280;20501;45.956;13.632;2023-11-19T10:26:26;100888.88;;;11.45;60.35
34237;BME280;20501;45.956;13.632;2023-11-19T10:28:52;100892.72;;;11.43;59.31
34237;BME280;20501;45.956;13.632;2023-11-19T10:31:19;100876.38;;;11.54;59.87
34237;BME280;20501;45.956;13.632;2023-11-19T10:33:48;100860.84;;;11.56;59.42
34237;BME280;20501;45.956;13.632;2023-11-19T10:36:14;100850.88;;;11.67;58.67
34237;BME280;20501;45.956;13.632;2023-11-19T10:38:40;100852.03;;;11.64;58.63
34237;BME280;20501;45.956;13.632;2023-11-19T10:41:06;100848.22;;;11.86;59.22
34237;BME280;20501;45.956;13.632;2023-11-19T10:43:43;100851.06;;;11.75;60.52
34237;BME280;20501;45.956;13.632;2023-11-19T10:46:12;100850.88;;;11.67;59.99
34237;BME280;20501;45.956;13.632;2023-11-19T10:48:39;100863.72;;;11.65;60.24
34237;BME280;20501;45.956;13.632;2023-11-19T10:51:06;100856.28;;;11.67;61.46
34237;BME280;20501;45.956;13.632;2023-11-19T10:53:37;100853.19;;;11.81;61.27
34237;BME280;20501;45.956;13.632;2023-11-19T10:56:06;100839.50;;;11.83;61.65
34237;BME280;20501;45.956;13.632;2023-11-19T10:58:35;100839.78;;;11.70;60.22
34237;BME280;20501;45.956;13.632;2023-11-19T11:01:09;100827.97;;;11.71;60.74
34237;BME280;20501;45.956;13.632;2023-11-19T11:03:39;100819.00;;;12.10;60.44
34237;BME280;20501;45.956;13.632;2023-11-19T11:06:05;100817.97;;;12.40;59.83
34237;BME280;20501;45.956;13.632;2023-11-19T11:08:31;100825.69;;;12.73;58.43
34237;BME280;20501;45.956;13.632;2023-11-19T11:10:57;100810.34;;;12.91;58.10
34237;BME280;20501;45.956;13.632;2023-11-19T11:13:24;100809.81;;;13.15;57.93
34237;BME280;20501;45.956;13.632;2023-11-19T11:15:50;100799.34;;;13.21;58.13
34237;BME280;20501;45.956;13.632;2023-11-19T11:18:17;100808.34;;;13.49;56.78
34237;BME280;20501;45.956;13.632;2023-11-19T11:20:44;100812.31;;;13.55;56.75
34237;BME280;20501;45.956;13.632;2023-11-19T11:37:33;100787.38;;;15.09;54.58
34237;BME280;20501;45.956;13.632;2023-11-19T11:40:02;100787.34;;;15.44;54.27
34237;BME280;20501;45.956;13.632;2023-11-19T11:42:32;100790.94;;;15.69;53.22
34237;BME280;20501;45.956;13.632;2023-11-19T11:50:22;100786.25;;;16.69;51.26
34237;BME280;20501;45.956;13.632;2023-11-19T11:57:55;100781.91;;;16.99;52.48
34237;BME280;20501;45.956;13.632;2023-11-19T12:00:27;100776.34;;;16.76;52.95
34237;BME280;20501;45.956;13.632;2023-11-19T12:02:57;100776.91;;;16.63;53.50
34237;BME280;20501;45.956;13.632;2023-11-19T12:05:24;100777.44;;;16.50;54.35
34237;BME280;20501;45.956;13.632;2023-11-19T12:07:56;100779.50;;;16.32;55.25
34237;BME280;20501;45.956;13.632;2023-11-19T12:10:24;100783.44;;;16.29;54.31
34237;BME280;20501;45.956;13.632;2023-11-19T12:12:52;100782.66;;;15.87;55.68
34237;BME280;20501;45.956;13.632;2023-11-19T12:15:18;100782.59;;;15.79;56.35
34237;BME280;20501;45.956;13.632;2023-11-19T12:17:51;100778.19;;;16.19;55.08
34237;BME280;20501;45.956;13.632;2023-11-19T12:20:18;100780.50;;;15.48;57.70
34237;BME280;20501;45.956;13.632;2023-11-19T12:22:46;100771.47;;;15.39;58.87
34237;BME280;20501;45.956;13.632;2023-11-19T12:25:12;100766.91;;;15.40;58.95
34237;BME280;20501;45.956;13.632;2023-11-19T12:27:42;100763.06;;;15.08;59.71
34237;BME280;20501;45.956;13.632;2023-11-19T12:30:08;100765.22;;;14.96;60.52
34237;BME280;20501;45.956;13.632;2023-11-19T12:32:44;100774.66;;;15.18;60.67
34237;BME280;20501;45.956;13.632;2023-11-19T12:35:11;100774.44;;;14.95;60.17
34237;BME280;20501;45.956;13.632;2023-11-19T12:37:46;100768.81;;;14.62;61.22
34237;BME280;20501;45.956;13.632;2023-11-19T12:42:38;100761.84;;;14.33;62.54
34237;BME280;20501;45.956;13.632;2023-11-19T12:45:05;100767.00;;;14.18;63.05
34237;BME280;20501;45.956;13.632;2023-11-19T12:47:30;100761.56;;;14.18;61.63
34237;BME280;20501;45.956;13.632;2023-11-19T12:49:57;100756.94;;;14.10;62.20
34237;BME280;20501;45.956;13.632;2023-11-19T12:52:22;100745.22;;;14.09;63.12
34237;BME280;20501;45.956;13.632;2023-11-19T12:54:48;100745.75;;;14.13;63.93
34237;BME280;20501;45.956;13.632;2023-11-19T12:57:15;100747.09;;;14.09;64.42
34237;BME280;20501;45.956;13.632;2023-11-19T12:59:40;100750.97;;;14.06;64.14
34237;BME280;20501;45.956;13.632;2023-11-19T13:02:07;100759.66;;;14.10;63.96
34237;BME280;20501;45.956;13.632;2023-11-19T13:04:33;100761.13;;;14.31;62.73
34237;BME280;20501;45.956;13.632;2023-11-19T13:06:59;100763.28;;;14.19;61.42
34237;BME280;20501;45.956;13.632;2023-11-19T13:09:28;100764.41;;;14.08;62.04
34237;BME280;20501;45.956;13.632;2023-11-19T13:11:54;100757.81;;;14.11;63.64
34237;BME280;20501;45.956;13.632;2023-11-19T13:14:21;100746.94;;;14.11;61.93